sensor_id;sensor_type;location;lat;lon;timestamp;temperature;humidity
17774;DHT22;9011;33.236;-97.118;2022-09-16T00:01:18;29.70;88.70
17774;DHT22;9011;33.236;-97.118;2022-09-16T00:03:47;29.40;89.30
17774;DHT22;9011;33.236;-97.118;2022-09-16T00:06:18;29.50;89.00
17774;DHT22;9011;33.236;-97.118;2022-09-16T00:08:47;29.30;89.90
17774;DHT22;9011;33.236;-97.118;2022-09-16T00:11:18;29.10;89.80
17774;DHT22;9011;33.236;-97.118;2022-09-16T00:13:52;29.00;90.00
17774;DHT22;9011;33.236;-97.118;2022-09-16T00:16:36;28.90;89.70
17774;DHT22;9011;33.236;-97.118;2022-09-16T00:20:22;28.80;90.00
17774;DHT22;9011;33.236;-97.118;2022-09-16T00:22:20;28.70;90.40
17774;DHT22;9011;33.236;-97.118;2022-09-16T00:25:09;28.60;90.50
17774;DHT22;9011;33.236;-97.118;2022-09-16T00:27:55;28.40;90.70
17774;DHT22;9011;33.236;-97.118;2022-09-16T00:30:50;28.40;90.70
17774;DHT22;9011;33.236;-97.118;2022-09-16T00:33:22;28.30;90.80
17774;DHT22;9011;33.236;-97.118;2022-09-16T00:36:12;28.20;90.60
17774;DHT22;9011;33.236;-97.118;2022-09-16T00:38:52;28.30;90.60
17774;DHT22;9011;33.236;-97.118;2022-09-16T00:41:31;28.10;90.50
17774;DHT22;9011;33.236;-97.118;2022-09-16T00:47:20;28.10;90.60
17774;DHT22;9011;33.236;-97.118;2022-09-16T00:50:03;27.90;91.30
17774;DHT22;9011;33.236;-97.118;2022-09-16T00:55:32;27.80;91.00
17774;DHT22;9011;33.236;-97.118;2022-09-16T00:58:07;27.60;91.30
17774;DHT22;9011;33.236;-97.118;2022-09-16T01:00:43;27.50;91.40
17774;DHT22;9011;33.236;-97.118;2022-09-16T01:03:18;27.50;91.40
17774;DHT22;9011;33.236;-97.118;2022-09-16T01:05:53;27.30;91.60
17774;DHT22;9011;33.236;-97.118;2022-09-16T01:08:27;27.30;91.90
17774;DHT22;9011;33.236;-97.118;2022-09-16T01:11:09;27.10;91.90
17774;DHT22;9011;33.236;-97.118;2022-09-16T01:13:39;27.00;92.30
17774;DHT22;9011;33.236;-97.118;2022-09-16T01:16:18;26.80;92.40
17774;DHT22;9011;33.236;-97.118;2022-09-16T01:19:03;26.80;92.50
17774;DHT22;9011;33.236;-97.118;2022-09-16T01:21:57;26.80;92.40
17774;DHT22;9011;33.236;-97.118;2022-09-16T01:24:47;26.60;92.80
17774;DHT22;9011;33.236;-97.118;2022-09-16T01:30:47;26.50;93.30
17774;DHT22;9011;33.236;-97.118;2022-09-16T01:33:29;26.50;93.50
17774;DHT22;9011;33.236;-97.118;2022-09-16T01:36:11;26.30;94.00
17774;DHT22;9011;33.236;-97.118;2022-09-16T01:38:53;26.30;94.10
17774;DHT22;9011;33.236;-97.118;2022-09-16T01:41:28;26.20;94.50
17774;DHT22;9011;33.236;-97.118;2022-09-16T01:44:01;26.30;94.70
17774;DHT22;9011;33.236;-97.118;2022-09-16T01:46:38;26.10;95.30
17774;DHT22;9011;33.236;-97.118;2022-09-16T01:49:15;26.10;95.50
17774;DHT22;9011;33.236;-97.118;2022-09-16T01:51:49;26.10;95.80
17774;DHT22;9011;33.236;-97.118;2022-09-16T01:54:25;25.90;96.30
17774;DHT22;9011;33.236;-97.118;2022-09-16T01:56:59;25.80;96.90
17774;DHT22;9011;33.236;-97.118;2022-09-16T01:59:43;25.80;96.90
17774;DHT22;9011;33.236;-97.118;2022-09-16T02:02:18;25.80;97.10
17774;DHT22;9011;33.236;-97.118;2022-09-16T02:04:56;25.70;97.40
17774;DHT22;9011;33.236;-97.118;2022-09-16T02:07:30;25.70;97.50
17774;DHT22;9011;33.236;-97.118;2022-09-16T02:10:06;25.60;97.80
17774;DHT22;9011;33.236;-97.118;2022-09-16T02:12:52;25.50;97.90
17774;DHT22;9011;33.236;-97.118;2022-09-16T02:15:22;25.40;98.50
17774;DHT22;9011;33.236;-97.118;2022-09-16T02:17:58;25.40;98.70
17774;DHT22;9011;33.236;-97.118;2022-09-16T02:20:30;25.40;98.90
17774;DHT22;9011;33.236;-97.118;2022-09-16T02:23:03;25.30;99.10
17774;DHT22;9011;33.236;-97.118;2022-09-16T02:25:34;25.20;99.30
17774;DHT22;9011;33.236;-97.118;2022-09-16T02:28:07;25.10;99.50
17774;DHT22;9011;33.236;-97.118;2022-09-16T02:30:40;25.20;99.60
17774;DHT22;9011;33.236;-97.118;2022-09-16T02:33:12;25.20;99.80
17774;DHT22;9011;33.236;-97.118;2022-09-16T02:35:44;25.10;99.90
17774;DHT22;9011;33.236;-97.118;2022-09-16T02:38:18;25.10;99.90
17774;DHT22;9011;33.236;-97.118;2022-09-16T02:40:51;25.10;99.90
17774;DHT22;9011;33.236;-97.118;2022-09-16T02:43:19;25.10;99.90
17774;DHT22;9011;33.236;-97.118;2022-09-16T02:45:53;25.00;99.90
17774;DHT22;9011;33.236;-97.118;2022-09-16T02:48:32;24.90;99.90
17774;DHT22;9011;33.236;-97.118;2022-09-16T02:51:12;24.80;99.90
17774;DHT22;9011;33.236;-97.118;2022-09-16T02:53:46;24.80;99.90
17774;DHT22;9011;33.236;-97.118;2022-09-16T02:56:22;24.80;99.90
17774;DHT22;9011;33.236;-97.118;2022-09-16T02:58:52;24.80;99.90
17774;DHT22;9011;33.236;-97.118;2022-09-16T03:01:21;24.80;99.90
17774;DHT22;9011;33.236;-97.118;2022-09-16T03:03:53;24.70;99.90
17774;DHT22;9011;33.236;-97.118;2022-09-16T03:06:23;24.70;99.90
17774;DHT22;9011;33.236;-97.118;2022-09-16T03:08:54;24.40;99.90
17774;DHT22;9011;33.236;-97.118;2022-09-16T03:11:39;24.40;99.90
17774;DHT22;9011;33.236;-97.118;2022-09-16T03:14:43;24.30;99.90
17774;DHT22;9011;33.236;-97.118;2022-09-16T03:17:34;24.30;99.90
17774;DHT22;9011;33.236;-97.118;2022-09-16T03:20:14;24.30;99.90
17774;DHT22;9011;33.236;-97.118;2022-09-16T03:22:49;24.20;99.90
17774;DHT22;9011;33.236;-97.118;2022-09-16T03:25:28;24.10;99.90
17774;DHT22;9011;33.236;-97.118;2022-09-16T03:28:06;24.00;99.90
17774;DHT22;9011;33.236;-97.118;2022-09-16T03:30:40;23.90;99.90
17774;DHT22;9011;33.236;-97.118;2022-09-16T03:33:17;23.90;99.90
17774;DHT22;9011;33.236;-97.118;2022-09-16T03:35:50;23.80;99.90
17774;DHT22;9011;33.236;-97.118;2022-09-16T03:38:19;23.60;99.90
17774;DHT22;9011;33.236;-97.118;2022-09-16T03:40:48;23.60;99.90
17774;DHT22;9011;33.236;-97.118;2022-09-16T03:43:17;23.50;99.90
17774;DHT22;9011;33.236;-97.118;2022-09-16T03:45:46;23.40;99.90
17774;DHT22;9011;33.236;-97.118;2022-09-16T03:48:16;23.40;99.90
17774;DHT22;9011;33.236;-97.118;2022-09-16T03:50:44;23.40;99.90
17774;DHT22;9011;33.236;-97.118;2022-09-16T03:53:14;23.30;99.90
17774;DHT22;9011;33.236;-97.118;2022-09-16T03:55:43;23.30;99.90
17774;DHT22;9011;33.236;-97.118;2022-09-16T03:58:11;23.30;99.90
17774;DHT22;9011;33.236;-97.118;2022-09-16T04:00:40;23.30;99.90
17774;DHT22;9011;33.236;-97.118;2022-09-16T04:03:08;23.30;99.90
17774;DHT22;9011;33.236;-97.118;2022-09-16T04:05:37;23.30;99.90
17774;DHT22;9011;33.236;-97.118;2022-09-16T04:08:05;23.30;99.90
17774;DHT22;9011;33.236;-97.118;2022-09-16T04:10:35;23.30;99.90
17774;DHT22;9011;33.236;-97.118;2022-09-16T04:13:03;23.30;99.90
17774;DHT22;9011;33.236;-97.118;2022-09-16T04:15:35;23.30;99.90
17774;DHT22;9011;33.236;-97.118;2022-09-16T04:18:03;23.20;99.90
17774;DHT22;9011;33.236;-97.118;2022-09-16T04:20:33;23.20;99.90
17774;DHT22;9011;33.236;-97.118;2022-09-16T04:23:01;23.20;99.90
17774;DHT22;9011;33.236;-97.118;2022-09-16T04:25:37;23.20;99.90
17774;DHT22;9011;33.236;-97.118;2022-09-16T04:28:07;23.20;99.90
17774;DHT22;9011;33.236;-97.118;2022-09-16T04:30:36;23.10;99.90
17774;DHT22;9011;33.236;-97.118;2022-09-16T04:33:04;23.10;99.90
17774;DHT22;9011;33.236;-97.118;2022-09-16T04:35:33;23.00;99.90
17774;DHT22;9011;33.236;-97.118;2022-09-16T04:38:01;23.00;99.90
17774;DHT22;9011;33.236;-97.118;2022-09-16T04:40:29;22.90;99.90
17774;DHT22;9011;33.236;-97.118;2022-09-16T04:43:00;22.80;99.90
17774;DHT22;9011;33.236;-97.118;2022-09-16T04:45:28;22.80;99.90
17774;DHT22;9011;33.236;-97.118;2022-09-16T04:47:57;22.80;99.90
17774;DHT22;9011;33.236;-97.118;2022-09-16T04:50:26;22.70;99.90
17774;DHT22;9011;33.236;-97.118;2022-09-16T04:52:56;22.80;99.90
17774;DHT22;9011;33.236;-97.118;2022-09-16T04:55:24;22.80;99.90
17774;DHT22;9011;33.236;-97.118;2022-09-16T04:57:53;22.80;99.90
17774;DHT22;9011;33.236;-97.118;2022-09-16T05:00:23;22.70;99.90
17774;DHT22;9011;33.236;-97.118;2022-09-16T05:02:52;22.70;99.90
17774;DHT22;9011;33.236;-97.118;2022-09-16T05:05:21;22.60;99.90
17774;DHT22;9011;33.236;-97.118;2022-09-16T05:07:49;22.50;99.90
17774;DHT22;9011;33.236;-97.118;2022-09-16T05:10:18;22.50;99.90
17774;DHT22;9011;33.236;-97.118;2022-09-16T05:12:50;22.40;99.90
17774;DHT22;9011;33.236;-97.118;2022-09-16T05:15:19;22.50;99.90
17774;DHT22;9011;33.236;-97.118;2022-09-16T05:17:48;22.50;99.90
17774;DHT22;9011;33.236;-97.118;2022-09-16T05:20:17;22.50;99.90
17774;DHT22;9011;33.236;-97.118;2022-09-16T05:22:48;22.50;99.90
17774;DHT22;9011;33.236;-97.118;2022-09-16T05:25:17;22.50;99.90
17774;DHT22;9011;33.236;-97.118;2022-09-16T05:27:45;22.50;99.90
17774;DHT22;9011;33.236;-97.118;2022-09-16T05:30:14;22.40;99.90
17774;DHT22;9011;33.236;-97.118;2022-09-16T05:32:42;22.40;99.90
17774;DHT22;9011;33.236;-97.118;2022-09-16T05:35:12;22.30;99.90
17774;DHT22;9011;33.236;-97.118;2022-09-16T05:37:41;22.40;99.90
17774;DHT22;9011;33.236;-97.118;2022-09-16T05:40:10;22.40;99.90
17774;DHT22;9011;33.236;-97.118;2022-09-16T05:42:38;22.40;99.90
17774;DHT22;9011;33.236;-97.118;2022-09-16T05:45:07;22.40;99.90
17774;DHT22;9011;33.236;-97.118;2022-09-16T05:47:36;22.40;99.90
17774;DHT22;9011;33.236;-97.118;2022-09-16T05:50:05;22.30;99.90
17774;DHT22;9011;33.236;-97.118;2022-09-16T05:52:35;22.30;99.90
17774;DHT22;9011;33.236;-97.118;2022-09-16T05:55:04;22.30;99.90
17774;DHT22;9011;33.236;-97.118;2022-09-16T05:57:33;22.30;99.90
17774;DHT22;9011;33.236;-97.118;2022-09-16T06:00:02;22.30;99.90
17774;DHT22;9011;33.236;-97.118;2022-09-16T06:02:32;22.30;99.90
17774;DHT22;9011;33.236;-97.118;2022-09-16T06:05:00;22.30;99.90
17774;DHT22;9011;33.236;-97.118;2022-09-16T06:07:28;22.30;99.90
17774;DHT22;9011;33.236;-97.118;2022-09-16T06:09:58;22.30;99.90
17774;DHT22;9011;33.236;-97.118;2022-09-16T06:12:26;22.30;99.90
17774;DHT22;9011;33.236;-97.118;2022-09-16T06:14:55;22.30;99.90
17774;DHT22;9011;33.236;-97.118;2022-09-16T06:17:23;22.30;99.90
17774;DHT22;9011;33.236;-97.118;2022-09-16T06:19:51;22.30;99.90
17774;DHT22;9011;33.236;-97.118;2022-09-16T06:22:20;22.30;99.90
17774;DHT22;9011;33.236;-97.118;2022-09-16T06:24:48;22.20;99.90
17774;DHT22;9011;33.236;-97.118;2022-09-16T06:27:19;22.30;99.90
17774;DHT22;9011;33.236;-97.118;2022-09-16T06:29:48;22.30;99.90
17774;DHT22;9011;33.236;-97.118;2022-09-16T06:32:16;22.30;99.90
17774;DHT22;9011;33.236;-97.118;2022-09-16T06:34:45;22.30;99.90
17774;DHT22;9011;33.236;-97.118;2022-09-16T06:37:13;22.30;99.90
17774;DHT22;9011;33.236;-97.118;2022-09-16T06:39:42;22.30;99.90
17774;DHT22;9011;33.236;-97.118;2022-09-16T06:42:10;22.30;99.90
17774;DHT22;9011;33.236;-97.118;2022-09-16T06:44:41;22.30;99.90
17774;DHT22;9011;33.236;-97.118;2022-09-16T06:47:11;22.30;99.90
17774;DHT22;9011;33.236;-97.118;2022-09-16T06:49:39;22.20;99.90
17774;DHT22;9011;33.236;-97.118;2022-09-16T06:52:07;22.20;99.90
17774;DHT22;9011;33.236;-97.118;2022-09-16T06:54:37;22.30;99.90
17774;DHT22;9011;33.236;-97.118;2022-09-16T06:57:05;22.30;99.90
17774;DHT22;9011;33.236;-97.118;2022-09-16T06:59:33;22.20;99.90
17774;DHT22;9011;33.236;-97.118;2022-09-16T07:02:03;22.20;99.90
17774;DHT22;9011;33.236;-97.118;2022-09-16T07:04:32;22.20;99.90
17774;DHT22;9011;33.236;-97.118;2022-09-16T07:07:00;22.20;99.90
17774;DHT22;9011;33.236;-97.118;2022-09-16T07:09:29;22.20;99.90
17774;DHT22;9011;33.236;-97.118;2022-09-16T07:11:58;22.20;99.90
17774;DHT22;9011;33.236;-97.118;2022-09-16T07:14:26;22.20;99.90
17774;DHT22;9011;33.236;-97.118;2022-09-16T07:16:55;22.20;99.90
17774;DHT22;9011;33.236;-97.118;2022-09-16T07:19:25;22.20;99.90
17774;DHT22;9011;33.236;-97.118;2022-09-16T07:21:54;22.10;99.90
17774;DHT22;9011;33.236;-97.118;2022-09-16T07:24:22;22.20;99.90
17774;DHT22;9011;33.236;-97.118;2022-09-16T07:26:51;22.20;99.90
17774;DHT22;9011;33.236;-97.118;2022-09-16T07:29:19;22.20;99.90
17774;DHT22;9011;33.236;-97.118;2022-09-16T07:31:47;22.20;99.90
17774;DHT22;9011;33.236;-97.118;2022-09-16T07:34:16;22.20;99.90
17774;DHT22;9011;33.236;-97.118;2022-09-16T07:36:48;22.20;99.90
17774;DHT22;9011;33.236;-97.118;2022-09-16T07:39:17;22.20;99.90
17774;DHT22;9011;33.236;-97.118;2022-09-16T07:41:46;22.30;99.90
17774;DHT22;9011;33.236;-97.118;2022-09-16T07:44:17;22.30;99.90
17774;DHT22;9011;33.236;-97.118;2022-09-16T07:46:45;22.40;99.90
17774;DHT22;9011;33.236;-97.118;2022-09-16T07:49:16;22.40;99.90
17774;DHT22;9011;33.236;-97.118;2022-09-16T07:51:46;22.30;99.90
17774;DHT22;9011;33.236;-97.118;2022-09-16T07:54:16;22.40;99.90
17774;DHT22;9011;33.236;-97.118;2022-09-16T07:56:45;22.40;99.90
17774;DHT22;9011;33.236;-97.118;2022-09-16T07:59:15;22.40;99.90
17774;DHT22;9011;33.236;-97.118;2022-09-16T08:01:44;22.40;99.90
17774;DHT22;9011;33.236;-97.118;2022-09-16T08:04:12;22.40;99.90
17774;DHT22;9011;33.236;-97.118;2022-09-16T08:06:41;22.40;99.90
17774;DHT22;9011;33.236;-97.118;2022-09-16T08:09:11;22.40;99.90
17774;DHT22;9011;33.236;-97.118;2022-09-16T08:11:40;22.40;99.90
17774;DHT22;9011;33.236;-97.118;2022-09-16T08:14:09;22.50;99.90
17774;DHT22;9011;33.236;-97.118;2022-09-16T08:16:37;22.50;99.90
17774;DHT22;9011;33.236;-97.118;2022-09-16T08:19:06;22.50;99.90
17774;DHT22;9011;33.236;-97.118;2022-09-16T08:21:34;22.50;99.90
17774;DHT22;9011;33.236;-97.118;2022-09-16T08:24:02;22.40;99.90
17774;DHT22;9011;33.236;-97.118;2022-09-16T08:26:32;22.40;99.90
17774;DHT22;9011;33.236;-97.118;2022-09-16T08:29:01;22.40;99.90
17774;DHT22;9011;33.236;-97.118;2022-09-16T08:31:29;22.30;99.90
17774;DHT22;9011;33.236;-97.118;2022-09-16T08:33:58;22.30;99.90
17774;DHT22;9011;33.236;-97.118;2022-09-16T08:36:26;22.30;99.90
17774;DHT22;9011;33.236;-97.118;2022-09-16T08:38:55;22.30;99.90
17774;DHT22;9011;33.236;-97.118;2022-09-16T08:41:40;22.30;99.90
17774;DHT22;9011;33.236;-97.118;2022-09-16T08:44:21;22.30;99.90
17774;DHT22;9011;33.236;-97.118;2022-09-16T08:46:53;22.30;99.90
17774;DHT22;9011;33.236;-97.118;2022-09-16T08:49:30;22.30;99.90
17774;DHT22;9011;33.236;-97.118;2022-09-16T08:52:01;22.20;99.90
17774;DHT22;9011;33.236;-97.118;2022-09-16T08:54:33;22.20;99.90
17774;DHT22;9011;33.236;-97.118;2022-09-16T08:57:12;22.20;99.90
17774;DHT22;9011;33.236;-97.118;2022-09-16T08:59:45;22.20;99.90
17774;DHT22;9011;33.236;-97.118;2022-09-16T09:02:33;22.20;99.90
17774;DHT22;9011;33.236;-97.118;2022-09-16T09:05:14;22.20;99.90
17774;DHT22;9011;33.236;-97.118;2022-09-16T09:07:56;22.20;99.90
17774;DHT22;9011;33.236;-97.118;2022-09-16T09:10:39;22.20;99.90
17774;DHT22;9011;33.236;-97.118;2022-09-16T09:13:24;22.20;99.90
17774;DHT22;9011;33.236;-97.118;2022-09-16T09:16:02;22.10;99.90
17774;DHT22;9011;33.236;-97.118;2022-09-16T09:18:42;22.10;99.90
17774;DHT22;9011;33.236;-97.118;2022-09-16T09:21:20;22.00;99.90
17774;DHT22;9011;33.236;-97.118;2022-09-16T09:24:12;22.00;99.90
17774;DHT22;9011;33.236;-97.118;2022-09-16T09:26:48;22.00;99.90
17774;DHT22;9011;33.236;-97.118;2022-09-16T09:29:28;22.00;99.90
17774;DHT22;9011;33.236;-97.118;2022-09-16T09:32:09;22.00;99.90
17774;DHT22;9011;33.236;-97.118;2022-09-16T09:34:52;22.00;99.90
17774;DHT22;9011;33.236;-97.118;2022-09-16T09:37:42;22.00;99.90
17774;DHT22;9011;33.236;-97.118;2022-09-16T09:40:20;22.00;99.90
17774;DHT22;9011;33.236;-97.118;2022-09-16T09:42:52;21.90;99.90
17774;DHT22;9011;33.236;-97.118;2022-09-16T09:45:28;21.90;99.90
17774;DHT22;9011;33.236;-97.118;2022-09-16T09:48:00;21.90;99.90
17774;DHT22;9011;33.236;-97.118;2022-09-16T09:50:32;21.90;99.90
17774;DHT22;9011;33.236;-97.118;2022-09-16T09:53:10;21.90;99.90
17774;DHT22;9011;33.236;-97.118;2022-09-16T09:55:40;21.80;99.90
17774;DHT22;9011;33.236;-97.118;2022-09-16T09:58:20;21.80;99.90
17774;DHT22;9011;33.236;-97.118;2022-09-16T10:00:52;21.80;99.90
17774;DHT22;9011;33.236;-97.118;2022-09-16T10:03:25;21.70;99.90
17774;DHT22;9011;33.236;-97.118;2022-09-16T10:05:53;21.80;99.90
17774;DHT22;9011;33.236;-97.118;2022-09-16T10:08:25;21.80;99.90
17774;DHT22;9011;33.236;-97.118;2022-09-16T10:10:56;21.70;99.90
17774;DHT22;9011;33.236;-97.118;2022-09-16T10:13:26;21.70;99.90
17774;DHT22;9011;33.236;-97.118;2022-09-16T10:16:08;21.70;99.90
17774;DHT22;9011;33.236;-97.118;2022-09-16T10:18:37;21.70;99.90
17774;DHT22;9011;33.236;-97.118;2022-09-16T10:21:07;21.60;99.90
17774;DHT22;9011;33.236;-97.118;2022-09-16T10:23:36;21.70;99.90
17774;DHT22;9011;33.236;-97.118;2022-09-16T10:26:15;21.70;99.90
17774;DHT22;9011;33.236;-97.118;2022-09-16T10:28:54;21.70;99.90
17774;DHT22;9011;33.236;-97.118;2022-09-16T10:31:27;21.60;99.90
17774;DHT22;9011;33.236;-97.118;2022-09-16T10:33:58;21.70;99.90
17774;DHT22;9011;33.236;-97.118;2022-09-16T10:36:31;21.70;99.90
17774;DHT22;9011;33.236;-97.118;2022-09-16T10:39:00;21.80;99.90
17774;DHT22;9011;33.236;-97.118;2022-09-16T10:41:32;21.80;99.90
17774;DHT22;9011;33.236;-97.118;2022-09-16T10:44:03;21.80;99.90
17774;DHT22;9011;33.236;-97.118;2022-09-16T10:46:35;21.80;99.90
17774;DHT22;9011;33.236;-97.118;2022-09-16T10:49:14;21.80;99.90
17774;DHT22;9011;33.236;-97.118;2022-09-16T10:51:46;21.90;99.90
17774;DHT22;9011;33.236;-97.118;2022-09-16T10:54:24;21.90;99.90
17774;DHT22;9011;33.236;-97.118;2022-09-16T10:56:53;21.90;99.90
17774;DHT22;9011;33.236;-97.118;2022-09-16T10:59:22;21.80;99.90
17774;DHT22;9011;33.236;-97.118;2022-09-16T11:01:58;21.80;99.90
17774;DHT22;9011;33.236;-97.118;2022-09-16T11:04:49;21.80;99.90
17774;DHT22;9011;33.236;-97.118;2022-09-16T11:07:29;21.80;99.90
17774;DHT22;9011;33.236;-97.118;2022-09-16T11:10:08;21.80;99.90
17774;DHT22;9011;33.236;-97.118;2022-09-16T11:13:07;21.80;99.90
17774;DHT22;9011;33.236;-97.118;2022-09-16T11:15:55;21.70;99.90
17774;DHT22;9011;33.236;-97.118;2022-09-16T11:18:40;21.70;99.90
17774;DHT22;9011;33.236;-97.118;2022-09-16T11:27:36;21.70;99.90
17774;DHT22;9011;33.236;-97.118;2022-09-16T11:30:12;21.70;99.90
17774;DHT22;9011;33.236;-97.118;2022-09-16T11:36:02;21.60;99.90
17774;DHT22;9011;33.236;-97.118;2022-09-16T11:38:36;21.60;99.90
17774;DHT22;9011;33.236;-97.118;2022-09-16T11:41:12;21.60;99.90
17774;DHT22;9011;33.236;-97.118;2022-09-16T11:46:42;21.60;99.90
17774;DHT22;9011;33.236;-97.118;2022-09-16T11:49:23;21.50;99.90
17774;DHT22;9011;33.236;-97.118;2022-09-16T11:52:13;21.50;99.90
17774;DHT22;9011;33.236;-97.118;2022-09-16T11:55:01;21.50;99.90
17774;DHT22;9011;33.236;-97.118;2022-09-16T11:57:33;21.50;99.90
17774;DHT22;9011;33.236;-97.118;2022-09-16T12:00:05;21.50;99.90
17774;DHT22;9011;33.236;-97.118;2022-09-16T12:02:39;21.40;99.90
17774;DHT22;9011;33.236;-97.118;2022-09-16T12:05:13;21.40;99.90
17774;DHT22;9011;33.236;-97.118;2022-09-16T12:07:49;21.40;99.90
17774;DHT22;9011;33.236;-97.118;2022-09-16T12:10:21;21.30;99.90
17774;DHT22;9011;33.236;-97.118;2022-09-16T12:12:59;21.40;99.90
17774;DHT22;9011;33.236;-97.118;2022-09-16T12:15:31;21.30;99.90
17774;DHT22;9011;33.236;-97.118;2022-09-16T12:18:07;21.30;99.90
17774;DHT22;9011;33.236;-97.118;2022-09-16T12:20:41;21.30;99.90
17774;DHT22;9011;33.236;-97.118;2022-09-16T12:23:16;21.30;99.90
17774;DHT22;9011;33.236;-97.118;2022-09-16T12:25:50;21.30;99.90
17774;DHT22;9011;33.236;-97.118;2022-09-16T12:28:28;21.30;99.90
17774;DHT22;9011;33.236;-97.118;2022-09-16T12:31:05;21.30;99.90
17774;DHT22;9011;33.236;-97.118;2022-09-16T12:33:39;21.30;99.90
17774;DHT22;9011;33.236;-97.118;2022-09-16T12:36:11;21.40;99.90
17774;DHT22;9011;33.236;-97.118;2022-09-16T12:38:42;21.40;99.90
17774;DHT22;9011;33.236;-97.118;2022-09-16T12:41:24;21.50;99.90
17774;DHT22;9011;33.236;-97.118;2022-09-16T12:44:27;21.50;99.90
17774;DHT22;9011;33.236;-97.118;2022-09-16T12:47:29;21.50;99.90
17774;DHT22;9011;33.236;-97.118;2022-09-16T12:50:33;21.60;99.90
17774;DHT22;9011;33.236;-97.118;2022-09-16T12:53:44;21.60;99.90
17774;DHT22;9011;33.236;-97.118;2022-09-16T12:56:32;21.60;99.90
17774;DHT22;9011;33.236;-97.118;2022-09-16T12:59:33;21.60;99.90
17774;DHT22;9011;33.236;-97.118;2022-09-16T13:02:10;21.70;99.90
17774;DHT22;9011;33.236;-97.118;2022-09-16T13:04:43;21.60;99.90
17774;DHT22;9011;33.236;-97.118;2022-09-16T13:07:20;21.70;99.90
17774;DHT22;9011;33.236;-97.118;2022-09-16T13:10:02;21.70;99.90
17774;DHT22;9011;33.236;-97.118;2022-09-16T13:12:32;21.70;99.90
17774;DHT22;9011;33.236;-97.118;2022-09-16T13:15:02;21.70;99.90
17774;DHT22;9011;33.236;-97.118;2022-09-16T13:17:32;21.80;99.90
17774;DHT22;9011;33.236;-97.118;2022-09-16T13:20:04;21.80;99.90
17774;DHT22;9011;33.236;-97.118;2022-09-16T13:22:45;21.80;99.90
17774;DHT22;9011;33.236;-97.118;2022-09-16T13:25:21;21.80;99.90
17774;DHT22;9011;33.236;-97.118;2022-09-16T13:27:56;21.80;99.90
17774;DHT22;9011;33.236;-97.118;2022-09-16T13:30:28;21.90;99.90
17774;DHT22;9011;33.236;-97.118;2022-09-16T13:32:59;22.00;99.90
17774;DHT22;9011;33.236;-97.118;2022-09-16T13:35:37;22.10;99.90
17774;DHT22;9011;33.236;-97.118;2022-09-16T13:38:35;22.20;99.90
17774;DHT22;9011;33.236;-97.118;2022-09-16T13:41:09;22.30;99.90
17774;DHT22;9011;33.236;-97.118;2022-09-16T13:43:50;22.50;99.90
17774;DHT22;9011;33.236;-97.118;2022-09-16T13:46:33;22.60;99.90
17774;DHT22;9011;33.236;-97.118;2022-09-16T13:49:19;22.70;99.90
17774;DHT22;9011;33.236;-97.118;2022-09-16T13:51:50;22.80;99.90
17774;DHT22;9011;33.236;-97.118;2022-09-16T13:54:29;22.90;99.90
17774;DHT22;9011;33.236;-97.118;2022-09-16T13:57:13;23.10;99.90
17774;DHT22;9011;33.236;-97.118;2022-09-16T14:02:47;23.30;99.90
17774;DHT22;9011;33.236;-97.118;2022-09-16T14:05:35;23.40;99.90
17774;DHT22;9011;33.236;-97.118;2022-09-16T14:08:14;23.60;99.90
17774;DHT22;9011;33.236;-97.118;2022-09-16T14:10:50;23.70;99.90
17774;DHT22;9011;33.236;-97.118;2022-09-16T14:13:23;23.90;99.90
17774;DHT22;9011;33.236;-97.118;2022-09-16T14:15:55;24.00;99.90
17774;DHT22;9011;33.236;-97.118;2022-09-16T14:18:27;24.20;99.90
17774;DHT22;9011;33.236;-97.118;2022-09-16T14:21:01;24.30;99.90
17774;DHT22;9011;33.236;-97.118;2022-09-16T14:23:30;24.40;99.90
17774;DHT22;9011;33.236;-97.118;2022-09-16T14:26:09;24.50;99.90
17774;DHT22;9011;33.236;-97.118;2022-09-16T14:28:39;24.70;99.90
17774;DHT22;9011;33.236;-97.118;2022-09-16T14:31:16;24.80;99.90
17774;DHT22;9011;33.236;-97.118;2022-09-16T14:33:47;24.90;99.90
17774;DHT22;9011;33.236;-97.118;2022-09-16T14:36:19;25.00;99.90
17774;DHT22;9011;33.236;-97.118;2022-09-16T14:38:52;25.00;99.90
17774;DHT22;9011;33.236;-97.118;2022-09-16T14:41:24;25.20;99.90
17774;DHT22;9011;33.236;-97.118;2022-09-16T14:44:02;25.30;99.90
17774;DHT22;9011;33.236;-97.118;2022-09-16T14:46:40;25.50;99.90
17774;DHT22;9011;33.236;-97.118;2022-09-16T14:49:10;25.50;99.90
17774;DHT22;9011;33.236;-97.118;2022-09-16T14:51:41;25.50;99.90
17774;DHT22;9011;33.236;-97.118;2022-09-16T14:54:16;25.70;99.90
17774;DHT22;9011;33.236;-97.118;2022-09-16T14:56:55;25.60;99.90
17774;DHT22;9011;33.236;-97.118;2022-09-16T14:59:26;25.80;99.90
17774;DHT22;9011;33.236;-97.118;2022-09-16T15:01:59;25.90;99.90
17774;DHT22;9011;33.236;-97.118;2022-09-16T15:04:31;26.00;99.90
17774;DHT22;9011;33.236;-97.118;2022-09-16T15:07:06;26.20;99.90
17774;DHT22;9011;33.236;-97.118;2022-09-16T15:09:40;26.30;99.90
17774;DHT22;9011;33.236;-97.118;2022-09-16T15:12:19;26.40;99.90
17774;DHT22;9011;33.236;-97.118;2022-09-16T15:14:50;26.60;99.90
17774;DHT22;9011;33.236;-97.118;2022-09-16T15:17:20;26.50;99.90
17774;DHT22;9011;33.236;-97.118;2022-09-16T15:19:53;26.70;99.90
17774;DHT22;9011;33.236;-97.118;2022-09-16T15:22:23;26.90;99.90
17774;DHT22;9011;33.236;-97.118;2022-09-16T15:24:53;27.00;99.90
17774;DHT22;9011;33.236;-97.118;2022-09-16T15:27:27;27.20;99.90
17774;DHT22;9011;33.236;-97.118;2022-09-16T15:29:59;27.20;99.90
17774;DHT22;9011;33.236;-97.118;2022-09-16T15:32:30;27.50;99.90
17774;DHT22;9011;33.236;-97.118;2022-09-16T15:37:55;28.00;99.90
17774;DHT22;9011;33.236;-97.118;2022-09-16T15:40:32;28.00;99.90
17774;DHT22;9011;33.236;-97.118;2022-09-16T15:43:08;27.90;99.90
17774;DHT22;9011;33.236;-97.118;2022-09-16T15:45:40;28.10;99.90
17774;DHT22;9011;33.236;-97.118;2022-09-16T15:48:14;28.20;99.90
17774;DHT22;9011;33.236;-97.118;2022-09-16T15:50:46;28.40;99.90
17774;DHT22;9011;33.236;-97.118;2022-09-16T15:53:18;28.50;99.90
17774;DHT22;9011;33.236;-97.118;2022-09-16T15:55:55;28.60;99.90
17774;DHT22;9011;33.236;-97.118;2022-09-16T15:58:34;28.60;99.90
17774;DHT22;9011;33.236;-97.118;2022-09-16T16:01:10;28.90;99.90
17774;DHT22;9011;33.236;-97.118;2022-09-16T16:03:53;29.10;99.90
17774;DHT22;9011;33.236;-97.118;2022-09-16T16:06:46;29.40;99.90
17774;DHT22;9011;33.236;-97.118;2022-09-16T16:09:34;29.50;99.90
17774;DHT22;9011;33.236;-97.118;2022-09-16T16:12:05;29.30;99.90
17774;DHT22;9011;33.236;-97.118;2022-09-16T16:14:36;29.40;99.90
17774;DHT22;9011;33.236;-97.118;2022-09-16T16:17:07;29.50;99.90
17774;DHT22;9011;33.236;-97.118;2022-09-16T16:19:36;29.60;99.90
17774;DHT22;9011;33.236;-97.118;2022-09-16T16:22:06;29.70;99.90
17774;DHT22;9011;33.236;-97.118;2022-09-16T16:24:34;29.90;99.90
17774;DHT22;9011;33.236;-97.118;2022-09-16T16:27:03;29.90;99.90